sensor_id;sensor_type;location;lat;lon;timestamp;P1;durP1;ratioP1;P2;durP2;ratioP2
22939;SDS011;11636;52.086;5.090;2023-05-08T00:02:45;7.93;;;6.93;;
22939;SDS011;11636;52.086;5.090;2023-05-08T00:05:42;7.65;;;6.85;;
22939;SDS011;11636;52.086;5.090;2023-05-08T00:08:36;8.20;;;7.32;;
22939;SDS011;11636;52.086;5.090;2023-05-08T00:11:23;8.63;;;7.72;;
22939;SDS011;11636;52.086;5.090;2023-05-08T00:14:17;9.52;;;8.23;;
22939;SDS011;11636;52.086;5.090;2023-05-08T00:17:11;8.68;;;7.78;;
22939;SDS011;11636;52.086;5.090;2023-05-08T00:19:59;8.45;;;7.55;;
22939;SDS011;11636;52.086;5.090;2023-05-08T00:22:52;9.88;;;8.57;;
22939;SDS011;11636;52.086;5.090;2023-05-08T00:25:39;10.20;;;9.20;;
22939;SDS011;11636;52.086;5.090;2023-05-08T00:28:33;8.68;;;7.78;;
22939;SDS011;11636;52.086;5.090;2023-05-08T00:31:27;9.35;;;8.35;;
22939;SDS011;11636;52.086;5.090;2023-05-08T00:34:21;9.40;;;8.40;;
22939;SDS011;11636;52.086;5.090;2023-05-08T00:37:08;8.98;;;8.07;;
22939;SDS011;11636;52.086;5.090;2023-05-08T00:40:02;7.55;;;6.80;;
22939;SDS011;11636;52.086;5.090;2023-05-08T00:42:56;9.27;;;8.35;;
22939;SDS011;11636;52.086;5.090;2023-05-08T00:45:50;8.45;;;7.63;;
22939;SDS011;11636;52.086;5.090;2023-05-08T00:48:38;8.77;;;7.45;;
22939;SDS011;11636;52.086;5.090;2023-05-08T00:51:32;8.85;;;7.95;;
22939;SDS011;11636;52.086;5.090;2023-05-08T00:54:26;8.73;;;7.45;;
22939;SDS011;11636;52.086;5.090;2023-05-08T00:57:20;9.10;;;8.10;;
22939;SDS011;11636;52.086;5.090;2023-05-08T01:00:15;7.78;;;6.97;;
22939;SDS011;11636;52.086;5.090;2023-05-08T01:03:09;8.30;;;7.40;;
22939;SDS011;11636;52.086;5.090;2023-05-08T01:05:58;8.75;;;7.85;;
22939;SDS011;11636;52.086;5.090;2023-05-08T01:08:52;8.95;;;7.47;;
22939;SDS011;11636;52.086;5.090;2023-05-08T01:11:51;7.70;;;6.85;;
22939;SDS011;11636;52.086;5.090;2023-05-08T01:14:59;8.13;;;6.97;;
22939;SDS011;11636;52.086;5.090;2023-05-08T01:21:09;8.38;;;7.15;;
22939;SDS011;11636;52.086;5.090;2023-05-08T01:31:07;8.25;;;7.43;;
22939;SDS011;11636;52.086;5.090;2023-05-08T01:34:06;8.27;;;7.32;;
22939;SDS011;11636;52.086;5.090;2023-05-08T01:37:04;9.88;;;6.80;;
22939;SDS011;11636;52.086;5.090;2023-05-08T01:46:31;8.00;;;6.93;;
22939;SDS011;11636;52.086;5.090;2023-05-08T01:49:27;8.18;;;7.38;;
22939;SDS011;11636;52.086;5.090;2023-05-08T01:52:28;8.35;;;7.28;;
22939;SDS011;11636;52.086;5.090;2023-05-08T01:55:20;8.07;;;7.18;;
22939;SDS011;11636;52.086;5.090;2023-05-08T01:58:26;7.55;;;6.70;;
22939;SDS011;11636;52.086;5.090;2023-05-08T02:01:16;7.65;;;6.82;;
22939;SDS011;11636;52.086;5.090;2023-05-08T02:04:14;7.88;;;7.07;;
22939;SDS011;11636;52.086;5.090;2023-05-08T02:07:09;8.75;;;7.05;;
22939;SDS011;11636;52.086;5.090;2023-05-08T02:09:57;8.57;;;6.80;;
22939;SDS011;11636;52.086;5.090;2023-05-08T02:12:52;7.70;;;6.82;;
22939;SDS011;11636;52.086;5.090;2023-05-08T02:15:54;8.60;;;7.35;;
22939;SDS011;11636;52.086;5.090;2023-05-08T02:18:50;8.23;;;7.43;;
22939;SDS011;11636;52.086;5.090;2023-05-08T02:21:45;9.00;;;7.55;;
22939;SDS011;11636;52.086;5.090;2023-05-08T02:24:40;8.13;;;7.32;;
22939;SDS011;11636;52.086;5.090;2023-05-08T02:27:35;7.93;;;7.13;;
22939;SDS011;11636;52.086;5.090;2023-05-08T02:30:24;8.93;;;8.00;;
22939;SDS011;11636;52.086;5.090;2023-05-08T02:33:18;8.77;;;7.68;;
22939;SDS011;11636;52.086;5.090;2023-05-08T02:36:14;8.50;;;7.50;;
22939;SDS011;11636;52.086;5.090;2023-05-08T02:39:04;8.13;;;7.03;;
22939;SDS011;11636;52.086;5.090;2023-05-08T02:41:59;7.47;;;6.63;;
22939;SDS011;11636;52.086;5.090;2023-05-08T02:44:54;8.18;;;7.22;;
22939;SDS011;11636;52.086;5.090;2023-05-08T02:51:03;7.70;;;6.90;;
22939;SDS011;11636;52.086;5.090;2023-05-08T02:54:09;8.15;;;7.32;;
22939;SDS011;11636;52.086;5.090;2023-05-08T03:00:36;8.55;;;7.65;;
22939;SDS011;11636;52.086;5.090;2023-05-08T03:03:39;9.00;;;8.10;;
22939;SDS011;11636;52.086;5.090;2023-05-08T03:06:30;8.90;;;8.00;;
22939;SDS011;11636;52.086;5.090;2023-05-08T03:09:47;8.82;;;7.90;;
22939;SDS011;11636;52.086;5.090;2023-05-08T03:12:39;8.73;;;7.82;;
22939;SDS011;11636;52.086;5.090;2023-05-08T03:15:40;7.70;;;6.88;;
22939;SDS011;11636;52.086;5.090;2023-05-08T03:18:51;8.57;;;7.60;;
22939;SDS011;11636;52.086;5.090;2023-05-08T03:21:50;9.70;;;8.32;;
22939;SDS011;11636;52.086;5.090;2023-05-08T03:24:38;7.88;;;7.00;;
22939;SDS011;11636;52.086;5.090;2023-05-08T03:27:34;8.27;;;7.30;;
22939;SDS011;11636;52.086;5.090;2023-05-08T03:30:23;7.97;;;7.18;;
22939;SDS011;11636;52.086;5.090;2023-05-08T03:33:18;8.88;;;7.95;;
22939;SDS011;11636;52.086;5.090;2023-05-08T03:36:15;7.72;;;6.93;;
22939;SDS011;11636;52.086;5.090;2023-05-08T03:39:10;9.20;;;7.28;;
22939;SDS011;11636;52.086;5.090;2023-05-08T03:41:57;9.63;;;8.25;;
22939;SDS011;11636;52.086;5.090;2023-05-08T03:44:52;7.82;;;7.03;;
22939;SDS011;11636;52.086;5.090;2023-05-08T03:47:39;7.93;;;7.13;;
22939;SDS011;11636;52.086;5.090;2023-05-08T03:50:34;7.57;;;6.80;;
22939;SDS011;11636;52.086;5.090;2023-05-08T03:53:32;8.60;;;7.45;;
22939;SDS011;11636;52.086;5.090;2023-05-08T03:56:26;8.32;;;7.43;;
22939;SDS011;11636;52.086;5.090;2023-05-08T03:59:20;7.13;;;6.43;;
22939;SDS011;11636;52.086;5.090;2023-05-08T04:06:06;7.95;;;7.03;;
22939;SDS011;11636;52.086;5.090;2023-05-08T04:09:05;8.65;;;7.75;;
22939;SDS011;11636;52.086;5.090;2023-05-08T04:12:04;8.73;;;7.60;;
22939;SDS011;11636;52.086;5.090;2023-05-08T04:15:05;7.95;;;7.15;;
22939;SDS011;11636;52.086;5.090;2023-05-08T04:18:05;7.50;;;6.75;;
22939;SDS011;11636;52.086;5.090;2023-05-08T04:20:56;7.90;;;7.10;;
22939;SDS011;11636;52.086;5.090;2023-05-08T04:23:51;7.28;;;6.57;;
22939;SDS011;11636;52.086;5.090;2023-05-08T04:26:48;8.57;;;7.47;;
22939;SDS011;11636;52.086;5.090;2023-05-08T04:29:37;6.90;;;6.03;;
22939;SDS011;11636;52.086;5.090;2023-05-08T04:32:31;11.57;;;9.75;;
22939;SDS011;11636;52.086;5.090;2023-05-08T04:35:20;31.05;;;15.80;;
22939;SDS011;11636;52.086;5.090;2023-05-08T04:38:14;15.75;;;14.05;;
22939;SDS011;11636;52.086;5.090;2023-05-08T04:41:08;19.38;;;15.98;;
22939;SDS011;11636;52.086;5.090;2023-05-08T04:44:02;16.20;;;14.23;;
22939;SDS011;11636;52.086;5.090;2023-05-08T04:46:50;18.20;;;14.63;;
22939;SDS011;11636;52.086;5.090;2023-05-08T04:49:46;15.35;;;12.85;;
22939;SDS011;11636;52.086;5.090;2023-05-08T04:52:40;14.10;;;12.18;;
22939;SDS011;11636;52.086;5.090;2023-05-08T04:55:34;13.30;;;11.82;;
22939;SDS011;11636;52.086;5.090;2023-05-08T04:58:28;14.25;;;11.85;;
22939;SDS011;11636;52.086;5.090;2023-05-08T05:01:22;12.00;;;10.07;;
22939;SDS011;11636;52.086;5.090;2023-05-08T05:04:10;13.00;;;10.73;;
22939;SDS011;11636;52.086;5.090;2023-05-08T05:07:03;13.93;;;11.75;;
22939;SDS011;11636;52.086;5.090;2023-05-08T05:09:58;12.82;;;10.82;;
22939;SDS011;11636;52.086;5.090;2023-05-08T05:12:53;12.15;;;9.55;;
22939;SDS011;11636;52.086;5.090;2023-05-08T05:15:43;11.68;;;9.63;;
22939;SDS011;11636;52.086;5.090;2023-05-08T05:18:37;12.85;;;10.65;;
22939;SDS011;11636;52.086;5.090;2023-05-08T05:21:31;11.18;;;8.95;;
22939;SDS011;11636;52.086;5.090;2023-05-08T05:24:25;10.77;;;8.80;;
22939;SDS011;11636;52.086;5.090;2023-05-08T05:27:13;12.23;;;9.90;;
22939;SDS011;11636;52.086;5.090;2023-05-08T05:30:07;12.23;;;9.82;;
22939;SDS011;11636;52.086;5.090;2023-05-08T05:33:01;15.77;;;12.43;;
22939;SDS011;11636;52.086;5.090;2023-05-08T05:35:57;13.18;;;10.50;;
22939;SDS011;11636;52.086;5.090;2023-05-08T05:38:44;12.10;;;9.57;;
22939;SDS011;11636;52.086;5.090;2023-05-08T05:41:39;11.90;;;9.43;;
22939;SDS011;11636;52.086;5.090;2023-05-08T05:44:36;12.52;;;9.98;;
22939;SDS011;11636;52.086;5.090;2023-05-08T05:47:23;13.30;;;9.90;;
22939;SDS011;11636;52.086;5.090;2023-05-08T05:50:17;10.95;;;8.75;;
22939;SDS011;11636;52.086;5.090;2023-05-08T05:53:11;10.13;;;8.05;;
22939;SDS011;11636;52.086;5.090;2023-05-08T05:56:05;11.70;;;9.45;;
22939;SDS011;11636;52.086;5.090;2023-05-08T05:58:52;10.40;;;8.45;;
22939;SDS011;11636;52.086;5.090;2023-05-08T06:01:46;14.18;;;10.50;;
22939;SDS011;11636;52.086;5.090;2023-05-08T06:04:33;16.05;;;12.57;;
22939;SDS011;11636;52.086;5.090;2023-05-08T06:07:27;22.95;;;18.35;;
22939;SDS011;11636;52.086;5.090;2023-05-08T06:10:14;16.38;;;13.05;;
22939;SDS011;11636;52.086;5.090;2023-05-08T06:13:08;13.75;;;11.20;;
22939;SDS011;11636;52.086;5.090;2023-05-08T06:15:55;14.88;;;11.52;;
22939;SDS011;11636;52.086;5.090;2023-05-08T06:18:49;11.23;;;8.98;;
22939;SDS011;11636;52.086;5.090;2023-05-08T06:21:43;14.93;;;11.27;;
22939;SDS011;11636;52.086;5.090;2023-05-08T06:24:37;14.40;;;11.15;;
22939;SDS011;11636;52.086;5.090;2023-05-08T06:27:26;16.50;;;11.75;;
22939;SDS011;11636;52.086;5.090;2023-05-08T06:30:20;23.35;;;17.73;;
22939;SDS011;11636;52.086;5.090;2023-05-08T06:33:07;18.02;;;14.80;;
22939;SDS011;11636;52.086;5.090;2023-05-08T06:36:03;21.77;;;16.88;;
22939;SDS011;11636;52.086;5.090;2023-05-08T06:38:58;20.30;;;15.98;;
22939;SDS011;11636;52.086;5.090;2023-05-08T06:41:52;17.25;;;14.18;;
22939;SDS011;11636;52.086;5.090;2023-05-08T06:44:39;30.38;;;22.60;;
22939;SDS011;11636;52.086;5.090;2023-05-08T06:47:33;36.47;;;26.67;;
22939;SDS011;11636;52.086;5.090;2023-05-08T06:50:20;35.28;;;26.23;;
22939;SDS011;11636;52.086;5.090;2023-05-08T06:53:14;25.25;;;20.00;;
22939;SDS011;11636;52.086;5.090;2023-05-08T06:56:01;24.98;;;18.95;;
22939;SDS011;11636;52.086;5.090;2023-05-08T06:58:55;32.63;;;23.33;;
22939;SDS011;11636;52.086;5.090;2023-05-08T07:01:54;26.58;;;20.55;;
22939;SDS011;11636;52.086;5.090;2023-05-08T07:04:48;24.50;;;18.88;;
22939;SDS011;11636;52.086;5.090;2023-05-08T07:07:35;21.83;;;17.02;;
22939;SDS011;11636;52.086;5.090;2023-05-08T07:10:29;29.02;;;21.85;;
22939;SDS011;11636;52.086;5.090;2023-05-08T07:13:16;20.80;;;15.80;;
22939;SDS011;11636;52.086;5.090;2023-05-08T07:16:13;35.85;;;26.73;;
22939;SDS011;11636;52.086;5.090;2023-05-08T07:19:08;34.53;;;25.42;;
22939;SDS011;11636;52.086;5.090;2023-05-08T07:21:55;28.70;;;22.35;;
22939;SDS011;11636;52.086;5.090;2023-05-08T07:24:49;28.35;;;21.58;;
22939;SDS011;11636;52.086;5.090;2023-05-08T07:27:36;21.67;;;17.50;;
22939;SDS011;11636;52.086;5.090;2023-05-08T07:30:30;17.90;;;14.20;;
22939;SDS011;11636;52.086;5.090;2023-05-08T07:33:17;21.85;;;17.25;;
22939;SDS011;11636;52.086;5.090;2023-05-08T07:36:11;22.83;;;19.00;;
22939;SDS011;11636;52.086;5.090;2023-05-08T07:39:11;37.15;;;29.52;;
22939;SDS011;11636;52.086;5.090;2023-05-08T07:42:05;50.65;;;38.35;;
22939;SDS011;11636;52.086;5.090;2023-05-08T07:44:59;43.15;;;33.30;;
22939;SDS011;11636;52.086;5.090;2023-05-08T07:47:54;54.85;;;39.22;;
22939;SDS011;11636;52.086;5.090;2023-05-08T07:50:51;45.83;;;35.40;;
22939;SDS011;11636;52.086;5.090;2023-05-08T07:53:45;58.60;;;40.03;;
22939;SDS011;11636;52.086;5.090;2023-05-08T07:56:41;43.83;;;32.17;;
22939;SDS011;11636;52.086;5.090;2023-05-08T07:59:35;50.15;;;35.03;;
22939;SDS011;11636;52.086;5.090;2023-05-08T08:02:22;46.25;;;33.10;;
22939;SDS011;11636;52.086;5.090;2023-05-08T08:05:16;40.72;;;28.75;;
22939;SDS011;11636;52.086;5.090;2023-05-08T08:08:10;36.38;;;25.85;;
22939;SDS011;11636;52.086;5.090;2023-05-08T08:10:57;35.30;;;25.42;;
22939;SDS011;11636;52.086;5.090;2023-05-08T08:13:51;33.88;;;24.13;;
22939;SDS011;11636;52.086;5.090;2023-05-08T08:16:45;29.65;;;21.80;;
22939;SDS011;11636;52.086;5.090;2023-05-08T08:19:39;40.20;;;27.75;;
22939;SDS011;11636;52.086;5.090;2023-05-08T08:22:33;51.65;;;35.88;;
22939;SDS011;11636;52.086;5.090;2023-05-08T08:25:29;55.60;;;36.70;;
22939;SDS011;11636;52.086;5.090;2023-05-08T08:28:16;51.15;;;36.25;;
22939;SDS011;11636;52.086;5.090;2023-05-08T08:31:10;48.20;;;34.05;;
22939;SDS011;11636;52.086;5.090;2023-05-08T08:33:57;35.45;;;26.52;;
22939;SDS011;11636;52.086;5.090;2023-05-08T08:36:51;35.13;;;25.65;;
22939;SDS011;11636;52.086;5.090;2023-05-08T08:39:39;35.75;;;26.27;;
22939;SDS011;11636;52.086;5.090;2023-05-08T08:42:34;29.70;;;23.30;;
22939;SDS011;11636;52.086;5.090;2023-05-08T08:45:28;53.47;;;37.83;;
22939;SDS011;11636;52.086;5.090;2023-05-08T08:48:16;60.63;;;41.42;;
22939;SDS011;11636;52.086;5.090;2023-05-08T08:54:20;90.90;;;62.78;;
22939;SDS011;11636;52.086;5.090;2023-05-08T08:57:09;87.35;;;60.60;;
22939;SDS011;11636;52.086;5.090;2023-05-08T09:00:06;81.32;;;56.83;;
22939;SDS011;11636;52.086;5.090;2023-05-08T09:02:54;69.85;;;49.28;;
22939;SDS011;11636;52.086;5.090;2023-05-08T09:05:48;88.65;;;60.67;;
22939;SDS011;11636;52.086;5.090;2023-05-08T09:08:43;87.05;;;58.50;;
22939;SDS011;11636;52.086;5.090;2023-05-08T09:11:37;90.22;;;60.60;;
22939;SDS011;11636;52.086;5.090;2023-05-08T09:14:26;85.65;;;58.17;;
22939;SDS011;11636;52.086;5.090;2023-05-08T09:17:20;73.57;;;51.25;;
22939;SDS011;11636;52.086;5.090;2023-05-08T09:20:14;79.53;;;55.33;;
22939;SDS011;11636;52.086;5.090;2023-05-08T09:23:01;85.25;;;58.15;;
22939;SDS011;11636;52.086;5.090;2023-05-08T09:25:55;100.88;;;67.13;;
22939;SDS011;11636;52.086;5.090;2023-05-08T09:28:42;93.28;;;64.05;;
22939;SDS011;11636;52.086;5.090;2023-05-08T09:31:37;94.60;;;64.22;;
22939;SDS011;11636;52.086;5.090;2023-05-08T09:34:32;95.95;;;64.38;;
22939;SDS011;11636;52.086;5.090;2023-05-08T09:37:20;105.13;;;70.43;;
22939;SDS011;11636;52.086;5.090;2023-05-08T09:40:15;91.13;;;63.20;;
22939;SDS011;11636;52.086;5.090;2023-05-08T09:43:13;79.95;;;53.67;;
22939;SDS011;11636;52.086;5.090;2023-05-08T09:46:22;89.63;;;62.95;;
22939;SDS011;11636;52.086;5.090;2023-05-08T09:49:18;84.80;;;57.15;;
22939;SDS011;11636;52.086;5.090;2023-05-08T09:52:06;82.15;;;59.22;;
22939;SDS011;11636;52.086;5.090;2023-05-08T09:57:58;78.95;;;55.40;;
22939;SDS011;11636;52.086;5.090;2023-05-08T10:00:46;74.28;;;53.55;;
22939;SDS011;11636;52.086;5.090;2023-05-08T10:03:48;63.47;;;48.35;;
22939;SDS011;11636;52.086;5.090;2023-05-08T10:06:36;64.18;;;45.15;;
22939;SDS011;11636;52.086;5.090;2023-05-08T10:09:29;61.63;;;46.40;;
22939;SDS011;11636;52.086;5.090;2023-05-08T10:12:36;43.70;;;34.05;;
22939;SDS011;11636;52.086;5.090;2023-05-08T10:15:31;68.50;;;49.97;;
22939;SDS011;11636;52.086;5.090;2023-05-08T10:18:28;66.75;;;48.67;;
22939;SDS011;11636;52.086;5.090;2023-05-08T10:21:17;71.22;;;51.13;;
22939;SDS011;11636;52.086;5.090;2023-05-08T10:24:20;89.20;;;65.85;;
22939;SDS011;11636;52.086;5.090;2023-05-08T10:27:18;70.25;;;52.92;;
22939;SDS011;11636;52.086;5.090;2023-05-08T10:30:22;72.63;;;53.83;;
22939;SDS011;11636;52.086;5.090;2023-05-08T10:33:20;76.20;;;56.00;;
22939;SDS011;11636;52.086;5.090;2023-05-08T10:36:17;71.40;;;50.92;;
22939;SDS011;11636;52.086;5.090;2023-05-08T10:39:04;63.20;;;46.28;;
22939;SDS011;11636;52.086;5.090;2023-05-08T10:41:59;53.50;;;39.35;;
22939;SDS011;11636;52.086;5.090;2023-05-08T10:44:46;81.05;;;58.70;;
22939;SDS011;11636;52.086;5.090;2023-05-08T10:51:05;57.00;;;43.13;;
22939;SDS011;11636;52.086;5.090;2023-05-08T10:54:07;66.45;;;48.33;;
22939;SDS011;11636;52.086;5.090;2023-05-08T10:57:13;55.17;;;40.75;;
22939;SDS011;11636;52.086;5.090;2023-05-08T11:00:01;45.95;;;35.10;;
22939;SDS011;11636;52.086;5.090;2023-05-08T11:03:03;32.65;;;25.60;;
22939;SDS011;11636;52.086;5.090;2023-05-08T11:06:09;43.13;;;33.20;;
22939;SDS011;11636;52.086;5.090;2023-05-08T11:09:03;53.70;;;39.80;;
22939;SDS011;11636;52.086;5.090;2023-05-08T11:15:16;29.77;;;23.90;;
22939;SDS011;11636;52.086;5.090;2023-05-08T11:18:31;42.50;;;33.42;;
22939;SDS011;11636;52.086;5.090;2023-05-08T11:21:35;50.15;;;36.67;;
22939;SDS011;11636;52.086;5.090;2023-05-08T11:24:33;51.67;;;41.33;;
22939;SDS011;11636;52.086;5.090;2023-05-08T11:27:37;44.58;;;34.50;;
22939;SDS011;11636;52.086;5.090;2023-05-08T11:33:28;48.88;;;37.15;;
22939;SDS011;11636;52.086;5.090;2023-05-08T11:36:22;57.05;;;41.88;;
22939;SDS011;11636;52.086;5.090;2023-05-08T11:39:17;41.85;;;30.50;;
22939;SDS011;11636;52.086;5.090;2023-05-08T11:45:14;57.33;;;40.17;;
22939;SDS011;11636;52.086;5.090;2023-05-08T11:48:08;47.95;;;34.60;;
22939;SDS011;11636;52.086;5.090;2023-05-08T11:51:08;50.45;;;33.85;;
22939;SDS011;11636;52.086;5.090;2023-05-08T11:53:56;40.92;;;29.75;;
22939;SDS011;11636;52.086;5.090;2023-05-08T11:56:51;53.08;;;36.53;;
22939;SDS011;11636;52.086;5.090;2023-05-08T12:05:25;46.97;;;32.45;;
22939;SDS011;11636;52.086;5.090;2023-05-08T12:08:19;58.10;;;39.05;;
22939;SDS011;11636;52.086;5.090;2023-05-08T12:11:06;59.42;;;40.45;;
22939;SDS011;11636;52.086;5.090;2023-05-08T12:14:01;54.47;;;39.03;;
22939;SDS011;11636;52.086;5.090;2023-05-08T12:16:49;57.63;;;38.95;;
22939;SDS011;11636;52.086;5.090;2023-05-08T12:19:43;56.28;;;37.28;;
22939;SDS011;11636;52.086;5.090;2023-05-08T12:22:31;47.38;;;33.72;;
22939;SDS011;11636;52.086;5.090;2023-05-08T12:25:24;53.95;;;37.65;;
22939;SDS011;11636;52.086;5.090;2023-05-08T12:28:11;51.75;;;36.22;;
22939;SDS011;11636;52.086;5.090;2023-05-08T12:31:05;51.22;;;36.10;;
22939;SDS011;11636;52.086;5.090;2023-05-08T12:33:53;44.88;;;31.25;;
22939;SDS011;11636;52.086;5.090;2023-05-08T12:36:47;50.67;;;36.85;;
22939;SDS011;11636;52.086;5.090;2023-05-08T12:39:36;53.03;;;36.47;;
22939;SDS011;11636;52.086;5.090;2023-05-08T12:42:45;48.33;;;35.42;;
22939;SDS011;11636;52.086;5.090;2023-05-08T12:45:41;34.97;;;25.48;;
22939;SDS011;11636;52.086;5.090;2023-05-08T12:48:29;38.67;;;26.90;;
22939;SDS011;11636;52.086;5.090;2023-05-08T12:51:28;41.92;;;29.23;;
22939;SDS011;11636;52.086;5.090;2023-05-08T12:54:16;35.03;;;25.63;;
22939;SDS011;11636;52.086;5.090;2023-05-08T12:57:11;27.92;;;20.85;;
22939;SDS011;11636;52.086;5.090;2023-05-08T13:00:05;16.75;;;13.55;;
22939;SDS011;11636;52.086;5.090;2023-05-08T13:03:00;35.85;;;27.48;;
22939;SDS011;11636;52.086;5.090;2023-05-08T13:05:47;31.35;;;23.73;;
22939;SDS011;11636;52.086;5.090;2023-05-08T13:08:41;28.80;;;21.73;;
22939;SDS011;11636;52.086;5.090;2023-05-08T13:11:35;40.20;;;31.95;;
22939;SDS011;11636;52.086;5.090;2023-05-08T13:14:24;24.30;;;20.17;;
22939;SDS011;11636;52.086;5.090;2023-05-08T13:17:18;36.13;;;26.65;;
22939;SDS011;11636;52.086;5.090;2023-05-08T13:20:12;36.75;;;28.17;;
22939;SDS011;11636;52.086;5.090;2023-05-08T13:23:00;41.88;;;32.78;;
22939;SDS011;11636;52.086;5.090;2023-05-08T13:25:54;28.23;;;22.45;;
22939;SDS011;11636;52.086;5.090;2023-05-08T13:28:42;28.90;;;21.92;;
22939;SDS011;11636;52.086;5.090;2023-05-08T13:31:42;33.63;;;26.80;;
22939;SDS011;11636;52.086;5.090;2023-05-08T13:34:35;35.17;;;27.55;;
22939;SDS011;11636;52.086;5.090;2023-05-08T13:37:37;31.70;;;23.42;;
22939;SDS011;11636;52.086;5.090;2023-05-08T13:40:30;39.75;;;31.42;;
22939;SDS011;11636;52.086;5.090;2023-05-08T13:43:31;33.17;;;25.77;;
22939;SDS011;11636;52.086;5.090;2023-05-08T13:46:18;34.28;;;25.98;;
22939;SDS011;11636;52.086;5.090;2023-05-08T13:49:13;33.47;;;25.40;;
22939;SDS011;11636;52.086;5.090;2023-05-08T13:52:00;37.50;;;29.30;;
22939;SDS011;11636;52.086;5.090;2023-05-08T13:54:53;40.60;;;30.08;;
22939;SDS011;11636;52.086;5.090;2023-05-08T13:57:47;29.67;;;23.90;;
22939;SDS011;11636;52.086;5.090;2023-05-08T14:00:41;36.55;;;27.25;;
22939;SDS011;11636;52.086;5.090;2023-05-08T14:03:28;36.13;;;27.90;;
22939;SDS011;11636;52.086;5.090;2023-05-08T14:06:23;25.73;;;20.85;;
22939;SDS011;11636;52.086;5.090;2023-05-08T14:09:16;22.65;;;17.88;;
22939;SDS011;11636;52.086;5.090;2023-05-08T14:12:04;33.50;;;27.17;;
22939;SDS011;11636;52.086;5.090;2023-05-08T14:14:57;30.38;;;22.65;;
22939;SDS011;11636;52.086;5.090;2023-05-08T14:17:45;25.05;;;20.00;;
22939;SDS011;11636;52.086;5.090;2023-05-08T14:20:40;33.38;;;24.40;;
22939;SDS011;11636;52.086;5.090;2023-05-08T14:23:43;32.78;;;24.67;;
22939;SDS011;11636;52.086;5.090;2023-05-08T14:26:30;38.70;;;29.55;;
22939;SDS011;11636;52.086;5.090;2023-05-08T14:29:25;36.10;;;27.33;;
22939;SDS011;11636;52.086;5.090;2023-05-08T14:32:12;30.95;;;23.95;;
22939;SDS011;11636;52.086;5.090;2023-05-08T14:35:05;38.22;;;29.33;;
22939;SDS011;11636;52.086;5.090;2023-05-08T14:37:55;38.55;;;30.45;;
22939;SDS011;11636;52.086;5.090;2023-05-08T14:40:49;31.45;;;23.80;;
22939;SDS011;11636;52.086;5.090;2023-05-08T14:43:36;28.15;;;21.60;;
22939;SDS011;11636;52.086;5.090;2023-05-08T14:46:30;38.58;;;29.90;;
22939;SDS011;11636;52.086;5.090;2023-05-08T14:49:17;40.03;;;30.23;;
22939;SDS011;11636;52.086;5.090;2023-05-08T14:52:23;40.45;;;29.20;;
22939;SDS011;11636;52.086;5.090;2023-05-08T14:55:10;42.83;;;34.00;;
22939;SDS011;11636;52.086;5.090;2023-05-08T14:58:04;40.88;;;31.90;;
22939;SDS011;11636;52.086;5.090;2023-05-08T15:00:51;29.58;;;23.17;;
22939;SDS011;11636;52.086;5.090;2023-05-08T15:03:45;43.60;;;33.13;;
22939;SDS011;11636;52.086;5.090;2023-05-08T15:06:45;46.00;;;35.40;;
22939;SDS011;11636;52.086;5.090;2023-05-08T15:09:32;41.08;;;29.55;;
22939;SDS011;11636;52.086;5.090;2023-05-08T15:12:25;45.65;;;32.53;;
22939;SDS011;11636;52.086;5.090;2023-05-08T15:15:14;59.95;;;40.85;;
22939;SDS011;11636;52.086;5.090;2023-05-08T15:18:08;69.38;;;43.85;;
22939;SDS011;11636;52.086;5.090;2023-05-08T15:20:56;72.97;;;44.78;;
22939;SDS011;11636;52.086;5.090;2023-05-08T15:23:52;83.05;;;48.60;;
22939;SDS011;11636;52.086;5.090;2023-05-08T15:26:40;81.22;;;45.78;;
22939;SDS011;11636;52.086;5.090;2023-05-08T15:29:34;100.15;;;55.55;;
22939;SDS011;11636;52.086;5.090;2023-05-08T15:32:27;90.60;;;51.67;;
22939;SDS011;11636;52.086;5.090;2023-05-08T15:35:15;117.57;;;62.78;;
22939;SDS011;11636;52.086;5.090;2023-05-08T15:38:08;115.88;;;64.10;;
22939;SDS011;11636;52.086;5.090;2023-05-08T15:41:04;103.28;;;57.38;;
22939;SDS011;11636;52.086;5.090;2023-05-08T15:43:51;97.53;;;54.55;;
22939;SDS011;11636;52.086;5.090;2023-05-08T15:46:45;106.88;;;59.63;;
22939;SDS011;11636;52.086;5.090;2023-05-08T15:49:32;104.53;;;57.47;;
22939;SDS011;11636;52.086;5.090;2023-05-08T15:52:25;86.80;;;51.00;;
22939;SDS011;11636;52.086;5.090;2023-05-08T15:55:13;86.55;;;49.67;;
22939;SDS011;11636;52.086;5.090;2023-05-08T15:58:09;107.75;;;61.50;;
22939;SDS011;11636;52.086;5.090;2023-05-08T16:00:56;96.88;;;56.88;;
22939;SDS011;11636;52.086;5.090;2023-05-08T16:03:50;94.90;;;55.35;;
22939;SDS011;11636;52.086;5.090;2023-05-08T16:06:37;120.40;;;68.38;;
22939;SDS011;11636;52.086;5.090;2023-05-08T16:09:31;115.50;;;65.75;;
22939;SDS011;11636;52.086;5.090;2023-05-08T16:12:18;108.47;;;59.53;;
22939;SDS011;11636;52.086;5.090;2023-05-08T16:15:11;97.43;;;56.78;;
22939;SDS011;11636;52.086;5.090;2023-05-08T16:18:06;99.05;;;56.78;;
22939;SDS011;11636;52.086;5.090;2023-05-08T16:20:53;93.22;;;53.65;;
22939;SDS011;11636;52.086;5.090;2023-05-08T16:23:47;100.03;;;55.90;;
22939;SDS011;11636;52.086;5.090;2023-05-08T16:26:34;113.72;;;58.75;;
22939;SDS011;11636;52.086;5.090;2023-05-08T16:29:28;104.97;;;57.47;;
22939;SDS011;11636;52.086;5.090;2023-05-08T16:32:15;109.72;;;59.40;;
22939;SDS011;11636;52.086;5.090;2023-05-08T16:35:09;103.35;;;57.03;;
22939;SDS011;11636;52.086;5.090;2023-05-08T16:37:57;82.30;;;46.72;;
22939;SDS011;11636;52.086;5.090;2023-05-08T16:40:51;70.75;;;44.42;;
22939;SDS011;11636;52.086;5.090;2023-05-08T16:43:45;70.43;;;45.53;;
22939;SDS011;11636;52.086;5.090;2023-05-08T16:46:32;75.70;;;47.00;;
22939;SDS011;11636;52.086;5.090;2023-05-08T16:49:26;85.60;;;49.90;;
22939;SDS011;11636;52.086;5.090;2023-05-08T16:52:20;77.07;;;46.72;;
22939;SDS011;11636;52.086;5.090;2023-05-08T16:55:14;80.13;;;47.05;;
22939;SDS011;11636;52.086;5.090;2023-05-08T16:58:01;63.45;;;40.10;;
22939;SDS011;11636;52.086;5.090;2023-05-08T17:00:57;54.97;;;36.10;;
22939;SDS011;11636;52.086;5.090;2023-05-08T17:03:44;52.25;;;34.97;;
22939;SDS011;11636;52.086;5.090;2023-05-08T17:06:38;49.30;;;33.17;;
22939;SDS011;11636;52.086;5.090;2023-05-08T17:09:33;51.45;;;34.05;;
22939;SDS011;11636;52.086;5.090;2023-05-08T17:12:27;50.55;;;33.65;;
22939;SDS011;11636;52.086;5.090;2023-05-08T17:15:21;46.65;;;30.63;;
22939;SDS011;11636;52.086;5.090;2023-05-08T17:18:15;53.50;;;34.00;;
22939;SDS011;11636;52.086;5.090;2023-05-08T17:21:02;45.33;;;28.98;;
22939;SDS011;11636;52.086;5.090;2023-05-08T17:23:57;48.45;;;30.65;;
22939;SDS011;11636;52.086;5.090;2023-05-08T17:26:52;64.10;;;37.58;;
22939;SDS011;11636;52.086;5.090;2023-05-08T17:29:39;69.28;;;39.92;;
22939;SDS011;11636;52.086;5.090;2023-05-08T17:32:33;63.42;;;37.75;;
22939;SDS011;11636;52.086;5.090;2023-05-08T17:35:27;63.15;;;38.55;;
22939;SDS011;11636;52.086;5.090;2023-05-08T17:38:14;63.55;;;37.03;;
22939;SDS011;11636;52.086;5.090;2023-05-08T17:41:08;59.30;;;35.30;;
22939;SDS011;11636;52.086;5.090;2023-05-08T17:44:02;66.18;;;38.05;;
22939;SDS011;11636;52.086;5.090;2023-05-08T17:46:50;66.03;;;39.13;;
22939;SDS011;11636;52.086;5.090;2023-05-08T17:49:44;66.80;;;39.55;;
22939;SDS011;11636;52.086;5.090;2023-05-08T17:52:31;73.95;;;43.15;;
22939;SDS011;11636;52.086;5.090;2023-05-08T17:55:27;68.40;;;39.50;;